Time;durP1;ratioP1;P1;durP2;ratioP2;P2;SDS_P1;SDS_P2;PMS_P1;PMS_P2;Temp;Humidity;BMP_temperature;BMP_pressure;BME280_temperature;BME280_humidity;BME280_pressure;Samples;Min_cycle;Max_cycle;Signal;HPM_P1;HPM_P2
2021/11/28 00:01:38;;;;;;;11.00;6.30;;;2.10;97.30;;;;;;5036600;28;20423;-84
2021/11/28 00:04:03;;;;;;;12.00;5.80;;;2.10;97.30;;;;;;5034911;28;20426;-83
2021/11/28 00:06:30;;;;;;;13.13;5.30;;;2.10;97.30;;;;;;5035220;28;20204;-83
2021/11/28 00:11:33;;;;;;;17.73;7.60;;;2.00;97.30;;;;;;5037111;28;20414;-84
2021/11/28 00:16:27;;;;;;;13.27;5.80;;;2.00;97.30;;;;;;5038452;28;20478;-82
2021/11/28 00:18:52;;;;;;;9.80;5.27;;;2.00;97.30;;;;;;5037283;28;20414;-82
2021/11/28 00:21:18;;;;;;;16.30;6.17;;;1.90;97.30;;;;;;5035640;28;20270;-82
2021/11/28 00:23:43;;;;;;;9.30;5.40;;;1.90;97.30;;;;;;5036558;28;20223;-83
2021/11/28 00:26:10;;;;;;;13.70;6.57;;;1.80;97.30;;;;;;5036583;28;20223;-83
2021/11/28 00:28:35;;;;;;;14.00;5.90;;;1.80;97.30;;;;;;5036388;28;20242;-83
2021/11/28 00:31:01;;;;;;;11.23;5.40;;;1.70;97.30;;;;;;5035719;28;20423;-83
2021/11/28 00:33:27;;;;;;;8.70;5.57;;;1.70;97.30;;;;;;5036487;28;20172;-83
2021/11/28 00:35:52;;;;;;;10.27;6.03;;;1.70;97.30;;;;;;5035666;28;20204;-82
2021/11/28 00:38:18;;;;;;;9.40;5.77;;;1.60;97.30;;;;;;5035995;28;20331;-83
2021/11/28 00:40:44;;;;;;;10.20;5.73;;;1.40;97.30;;;;;;5036211;28;20667;-83
2021/11/28 00:43:09;;;;;;;8.60;4.70;;;1.40;97.30;;;;;;5036755;28;20172;-83
2021/11/28 00:45:35;;;;;;;10.10;5.50;;;1.30;97.30;;;;;;5036181;28;20333;-83
2021/11/28 00:48:00;;;;;;;10.27;4.80;;;1.40;97.30;;;;;;5036652;28;20184;-84
2021/11/28 00:50:38;;;;;;;7.83;5.37;;;1.40;97.30;;;;;;5036209;28;20169;-84
2021/11/28 00:53:05;;;;;;;13.70;5.60;;;1.40;97.30;;;;;;5036546;28;20636;-83
2021/11/28 00:55:31;;;;;;;10.60;6.10;;;1.50;97.30;;;;;;5035456;28;20443;-84
2021/11/28 00:57:56;;;;;;;11.70;5.60;;;1.40;97.30;;;;;;5034519;28;20415;-84
2021/11/28 01:00:22;;;;;;;11.37;5.70;;;1.20;97.30;;;;;;5035370;28;20204;-83
2021/11/28 01:02:47;;;;;;;9.23;4.67;;;1.00;97.30;;;;;;5035432;28;20188;-82
2021/11/28 01:05:13;;;;;;;8.47;5.00;;;0.90;97.30;;;;;;5035954;28;20634;-82
2021/11/28 01:07:38;;;;;;;10.67;5.07;;;0.80;97.30;;;;;;5035660;28;20204;-82
2021/11/28 01:10:07;;;;;;;11.77;5.40;;;0.70;97.30;;;;;;5036034;28;20267;-82
2021/11/28 01:12:33;;;;;;;10.33;5.50;;;0.70;97.30;;;;;;5036765;28;20231;-83
2021/11/28 01:14:59;;;;;;;10.63;4.93;;;0.70;97.30;;;;;;5039463;28;20407;-83
2021/11/28 01:17:26;;;;;;;10.50;4.80;;;0.70;97.30;;;;;;5037545;28;20196;-84
2021/11/28 01:19:51;;;;;;;10.40;5.70;;;0.70;97.30;;;;;;5037287;28;20892;-84
2021/11/28 01:22:17;;;;;;;13.10;4.93;;;0.80;97.30;;;;;;5037401;28;20463;-84
2021/11/28 01:24:43;;;;;;;9.90;5.53;;;0.80;97.30;;;;;;5036154;28;20204;-82
2021/11/28 01:27:11;;;;;;;12.23;5.80;;;0.80;97.30;;;;;;5035711;28;20715;-82
2021/11/28 01:29:37;;;;;;;9.93;5.83;;;0.70;97.30;;;;;;5035727;28;20770;-82
2021/11/28 01:32:03;;;;;;;10.13;5.13;;;0.70;97.30;;;;;;5036230;28;20422;-82
2021/11/28 01:34:30;;;;;;;11.80;6.30;;;0.60;97.30;;;;;;5036931;28;20181;-83
2021/11/28 01:36:56;;;;;;;12.13;5.90;;;0.60;97.30;;;;;;5036206;28;20469;-82
2021/11/28 01:39:22;;;;;;;11.70;5.50;;;0.50;97.30;;;;;;5035990;28;20415;-83
2021/11/28 01:41:48;;;;;;;8.87;4.90;;;0.50;97.30;;;;;;5036255;28;20727;-83
2021/11/28 01:44:14;;;;;;;15.63;6.07;;;0.50;97.30;;;;;;5035230;28;20425;-83
2021/11/28 01:46:39;;;;;;;12.80;6.03;;;0.50;97.30;;;;;;5035424;28;20549;-82
2021/11/28 01:49:07;;;;;;;11.23;5.53;;;0.50;97.30;;;;;;5039634;28;20419;-83
2021/11/28 01:51:34;;;;;;;8.73;5.13;;;0.40;97.30;;;;;;5040176;28;20180;-84
2021/11/28 01:53:59;;;;;;;11.70;5.87;;;0.40;97.30;;;;;;5045518;28;20432;-83
2021/11/28 01:56:26;;;;;;;13.63;6.23;;;0.30;97.30;;;;;;5060096;28;20450;-83
2021/11/28 01:58:52;;;;;;;15.70;6.97;;;0.30;97.30;;;;;;5061541;28;20191;-83
2021/11/28 02:01:20;;;;;;;10.07;5.53;;;0.30;97.30;;;;;;5062788;28;20421;-83
2021/11/28 02:03:46;;;;;;;10.93;5.40;;;0.30;97.30;;;;;;5056155;28;20857;-83
2021/11/28 02:06:15;;;;;;;9.97;5.27;;;0.30;97.30;;;;;;5056771;28;20629;-83
2021/11/28 02:08:42;;;;;;;9.43;5.43;;;0.20;97.30;;;;;;5056610;28;20501;-84
2021/11/28 02:11:09;;;;;;;8.10;4.90;;;0.20;97.30;;;;;;5056535;28;20426;-83
2021/11/28 02:13:35;;;;;;;11.30;4.53;;;0.10;97.30;;;;;;5056361;28;20417;-83
2021/11/28 02:16:01;;;;;;;11.03;5.80;;;0.10;97.30;;;;;;5056075;28;20438;-83
2021/11/28 02:18:27;;;;;;;9.87;5.50;;;0.10;97.30;;;;;;5055909;28;20435;-83
2021/11/28 02:20:55;;;;;;;9.60;5.20;;;0.10;97.30;;;;;;5055843;28;20176;-83
2021/11/28 02:23:21;;;;;;;12.90;5.53;;;0.20;97.30;;;;;;5055057;28;20497;-83
2021/11/28 02:25:48;;;;;;;11.20;5.80;;;0.10;97.30;;;;;;5055267;28;20462;-83
2021/11/28 02:28:14;;;;;;;8.00;4.80;;;0.10;97.30;;;;;;5055512;28;20406;-82
2021/11/28 02:30:40;;;;;;;9.57;4.80;;;0.10;97.30;;;;;;5055393;28;20915;-83
2021/11/28 02:33:06;;;;;;;9.40;4.60;;;0.10;97.30;;;;;;5055331;28;20784;-83
2021/11/28 02:35:33;;;;;;;10.57;5.47;;;0.00;97.30;;;;;;5055373;28;20456;-83
2021/11/28 02:38:01;;;;;;;12.97;4.97;;;0.00;97.30;;;;;;5055690;28;20226;-84
2021/11/28 02:40:29;;;;;;;8.30;5.10;;;0.00;97.30;;;;;;5056506;28;20497;-83
2021/11/28 02:42:55;;;;;;;10.10;4.67;;;-0.10;97.30;;;;;;5055251;28;20946;-83
2021/11/28 02:45:25;;;;;;;13.53;6.00;;;-0.10;97.30;;;;;;5055294;28;22149;-83
2021/11/28 02:47:52;;;;;;;12.80;5.63;;;-0.20;97.30;;;;;;5055114;28;20468;-83
2021/11/28 02:50:20;;;;;;;12.23;5.10;;;-0.20;97.30;;;;;;5054941;28;20942;-83
2021/11/28 02:52:54;;;;;;;12.63;6.37;;;-0.40;97.30;;;;;;5054560;28;20495;-83
2021/11/28 02:55:26;;;;;;;9.20;5.30;;;-0.50;97.30;;;;;;5055355;28;20924;-83
2021/11/28 02:57:53;;;;;;;11.80;5.37;;;-0.50;97.30;;;;;;5054783;28;20418;-83
2021/11/28 03:00:20;;;;;;;10.60;5.30;;;-0.50;97.30;;;;;;5053819;28;20411;-82
2021/11/28 03:02:46;;;;;;;11.30;5.90;;;-0.50;97.30;;;;;;5054960;28;20426;-83
2021/11/28 03:05:11;;;;;;;9.17;5.90;;;-0.40;97.30;;;;;;5055253;28;20422;-83
2021/11/28 03:07:41;;;;;;;10.40;4.80;;;-0.40;97.30;;;;;;5055094;28;20209;-83
2021/11/28 03:10:38;;;;;;;9.33;5.30;;;-0.40;97.30;;;;;;5055107;28;20210;-83
2021/11/28 03:13:09;;;;;;;8.90;4.77;;;-0.40;97.30;;;;;;5055929;28;20395;-83
2021/11/28 03:15:36;;;;;;;7.90;4.40;;;-0.50;97.30;;;;;;5054234;28;20445;-83
2021/11/28 03:18:03;;;;;;;13.60;4.77;;;-0.50;97.30;;;;;;5054764;28;20498;-84
2021/11/28 03:20:30;;;;;;;10.40;6.27;;;-0.50;97.30;;;;;;5054557;28;20461;-84
2021/11/28 03:22:57;;;;;;;10.93;5.13;;;-0.60;97.30;;;;;;5055365;28;20452;-83
2021/11/28 03:25:24;;;;;;;8.73;4.93;;;-0.60;97.30;;;;;;5054392;28;20435;-83
2021/11/28 03:27:50;;;;;;;19.60;5.83;;;-0.60;97.30;;;;;;5054046;28;20476;-84
2021/11/28 03:30:17;;;;;;;9.83;4.67;;;-0.60;97.30;;;;;;5054375;28;20431;-83
2021/11/28 03:32:44;;;;;;;13.53;5.50;;;-0.60;97.30;;;;;;5054313;28;20855;-83
2021/11/28 03:35:10;;;;;;;10.97;4.67;;;-0.60;97.30;;;;;;5054339;28;20954;-84
2021/11/28 03:37:36;;;;;;;9.40;5.07;;;-0.70;97.30;;;;;;5055495;28;20426;-83
2021/11/28 03:40:05;;;;;;;13.03;5.27;;;-0.80;97.30;;;;;;5054139;28;20191;-83
2021/11/28 03:42:31;;;;;;;10.03;5.67;;;-1.00;97.30;;;;;;5054369;28;20184;-82
2021/11/28 03:44:56;;;;;;;11.57;5.17;;;-1.00;97.30;;;;;;5054079;28;20840;-83
2021/11/28 03:47:22;;;;;;;7.67;4.70;;;-1.00;97.30;;;;;;5053904;28;20307;-82
2021/11/28 03:49:48;;;;;;;10.70;5.30;;;-1.00;97.30;;;;;;5053905;28;20176;-82
2021/11/28 03:52:14;;;;;;;12.17;5.00;;;-1.00;97.30;;;;;;5055120;28;20172;-81
2021/11/28 03:54:39;;;;;;;12.87;5.90;;;-1.00;97.30;;;;;;5053848;28;20545;-81
2021/11/28 03:57:06;;;;;;;11.90;5.30;;;-1.00;97.30;;;;;;5053837;28;20446;-81
2021/11/28 03:59:32;;;;;;;14.37;5.70;;;-1.00;97.30;;;;;;5053409;28;20235;-81
2021/11/28 04:01:58;;;;;;;13.80;6.20;;;-1.00;97.30;;;;;;5053599;28;20513;-81
2021/11/28 04:04:23;;;;;;;8.70;4.50;;;-1.00;97.30;;;;;;5056145;28;20259;-81
2021/11/28 04:06:49;;;;;;;10.03;5.40;;;-0.90;97.30;;;;;;5054421;28;20532;-81
2021/11/28 04:09:14;;;;;;;7.90;4.77;;;-1.00;97.30;;;;;;5054244;28;20239;-82
2021/11/28 04:11:40;;;;;;;8.73;4.67;;;-1.00;97.30;;;;;;5053190;28;20178;-82
2021/11/28 04:14:06;;;;;;;9.93;4.77;;;-1.00;97.30;;;;;;5053860;28;20190;-82
2021/11/28 04:16:32;;;;;;;9.43;4.57;;;-1.00;97.30;;;;;;5055004;28;20200;-82
2021/11/28 04:18:59;;;;;;;12.53;5.00;;;-1.10;97.30;;;;;;5054762;28;21030;-81
2021/11/28 04:21:25;;;;;;;11.20;5.33;;;-1.10;97.30;;;;;;5053461;28;20222;-81
2021/11/28 04:23:53;;;;;;;8.83;5.23;;;-1.20;97.30;;;;;;5053097;28;20458;-81
2021/11/28 04:26:20;;;;;;;8.97;4.83;;;-1.20;97.30;;;;;;5053330;28;20466;-81
2021/11/28 04:28:46;;;;;;;10.93;5.30;;;-1.30;97.30;;;;;;5053183;28;21088;-81
2021/11/28 04:31:12;;;;;;;8.40;4.93;;;-1.30;97.30;;;;;;5053369;28;20467;-81
2021/11/28 04:33:38;;;;;;;10.03;4.83;;;-1.40;97.30;;;;;;5053530;28;20418;-81
2021/11/28 04:36:04;;;;;;;9.37;4.57;;;-1.40;97.30;;;;;;5053856;28;20498;-80
2021/11/28 04:38:31;;;;;;;9.70;5.20;;;-1.40;97.30;;;;;;5055097;28;20932;-81
2021/11/28 04:40:57;;;;;;;5.20;3.90;;;-1.40;97.30;;;;;;5053348;28;20418;-81
2021/11/28 04:43:23;;;;;;;10.10;4.20;;;-1.30;97.30;;;;;;5052429;28;20410;-81
2021/11/28 04:45:48;;;;;;;9.13;4.50;;;-1.30;97.30;;;;;;5052544;28;20468;-81
2021/11/28 04:48:14;;;;;;;9.37;4.40;;;-1.10;97.30;;;;;;5053827;28;20410;-80
2021/11/28 04:50:40;;;;;;;9.10;5.03;;;-1.10;97.30;;;;;;5052579;28;20760;-81
2021/11/28 04:53:05;;;;;;;9.97;5.30;;;-1.00;97.30;;;;;;5052238;28;20660;-81
2021/11/28 04:55:31;;;;;;;8.50;4.30;;;-0.90;97.30;;;;;;5052349;28;20218;-81
2021/11/28 04:57:57;;;;;;;10.17;5.10;;;-0.90;97.30;;;;;;5052255;28;20203;-80
2021/11/28 05:00:24;;;;;;;12.13;4.83;;;-0.80;97.30;;;;;;5052642;28;20839;-81
2021/11/28 05:02:51;;;;;;;16.13;6.33;;;-0.90;97.30;;;;;;5052363;28;20714;-80
2021/11/28 05:05:17;;;;;;;11.00;5.20;;;-1.00;97.30;;;;;;5052127;28;20506;-81
2021/11/28 05:07:43;;;;;;;20.27;5.87;;;-1.00;97.30;;;;;;5053049;28;20497;-81
2021/11/28 05:10:10;;;;;;;9.50;4.90;;;-0.90;97.30;;;;;;5053664;28;20453;-81
2021/11/28 05:12:35;;;;;;;10.53;4.90;;;-0.90;97.30;;;;;;5053043;28;20422;-81
2021/11/28 05:15:01;;;;;;;8.80;4.60;;;-0.90;97.30;;;;;;5052386;28;20775;-81
2021/11/28 05:17:27;;;;;;;9.87;5.13;;;-0.90;97.30;;;;;;5052519;28;20733;-81
2021/11/28 05:19:52;;;;;;;8.17;4.20;;;-1.00;97.30;;;;;;5052606;28;20421;-81
2021/11/28 05:22:18;;;;;;;6.47;4.50;;;-1.10;97.30;;;;;;5054010;28;20263;-81
2021/11/28 05:24:46;;;;;;;15.60;4.90;;;-1.20;97.30;;;;;;5058137;28;20160;-81
2021/11/28 05:27:11;;;;;;;10.20;4.33;;;-1.20;97.30;;;;;;5057019;28;20689;-81
2021/11/28 05:29:37;;;;;;;10.43;4.90;;;-1.20;97.30;;;;;;5057239;28;20467;-81
2021/11/28 05:32:03;;;;;;;11.43;5.17;;;-1.30;97.30;;;;;;5056729;28;20614;-82
2021/11/28 05:34:29;;;;;;;11.17;4.90;;;-1.30;97.30;;;;;;5056742;28;20182;-82
2021/11/28 05:36:55;;;;;;;6.80;4.17;;;-1.30;97.30;;;;;;5058488;28;20509;-82
2021/11/28 05:39:20;;;;;;;9.20;4.93;;;-1.20;97.30;;;;;;5055849;28;20230;-82
2021/11/28 05:41:46;;;;;;;13.30;5.07;;;-1.10;97.30;;;;;;5056542;28;20176;-82
2021/11/28 05:44:11;;;;;;;10.17;4.97;;;-1.00;97.30;;;;;;5056449;28;20652;-82
2021/11/28 05:46:37;;;;;;;9.00;4.70;;;-1.00;97.30;;;;;;5056296;28;20677;-81
2021/11/28 05:49:03;;;;;;;11.17;4.67;;;-0.90;97.30;;;;;;5056301;28;20183;-81
2021/11/28 05:51:29;;;;;;;9.27;4.40;;;-0.90;97.30;;;;;;5056643;28;20171;-82
2021/11/28 05:53:54;;;;;;;9.40;5.60;;;-0.90;97.30;;;;;;5055858;28;20943;-81
2021/11/28 05:56:20;;;;;;;10.47;4.50;;;-0.90;97.30;;;;;;5056485;28;20206;-82
2021/11/28 05:58:46;;;;;;;7.50;4.60;;;-0.90;97.30;;;;;;5058073;28;20180;-81
2021/11/28 06:01:11;;;;;;;7.43;4.67;;;-0.80;97.30;;;;;;5057662;28;20211;-81
2021/11/28 06:03:37;;;;;;;15.87;4.60;;;-0.80;97.30;;;;;;5055987;28;20536;-82
2021/11/28 06:06:03;;;;;;;11.30;4.70;;;-0.70;97.30;;;;;;5056521;28;20205;-82
2021/11/28 06:08:28;;;;;;;7.83;4.10;;;-0.70;97.30;;;;;;5057145;28;20763;-81
2021/11/28 06:10:54;;;;;;;11.00;4.80;;;-0.70;97.30;;;;;;5057468;28;20176;-81
2021/11/28 06:13:20;;;;;;;9.33;4.10;;;-0.70;97.30;;;;;;5057565;28;20241;-82
2021/11/28 06:15:45;;;;;;;9.30;4.50;;;-0.60;97.30;;;;;;5057131;28;20203;-82
2021/11/28 06:18:11;;;;;;;8.20;4.87;;;-0.60;97.30;;;;;;5057210;28;20176;-81
2021/11/28 06:20:38;;;;;;;10.87;4.60;;;-0.60;97.30;;;;;;5057779;28;20196;-81
2021/11/28 06:23:03;;;;;;;8.40;4.80;;;-0.60;97.30;;;;;;5053214;28;20227;-82
2021/11/28 06:25:29;;;;;;;7.90;4.47;;;-0.60;97.30;;;;;;5055657;28;20446;-81
2021/11/28 06:27:56;;;;;;;9.77;4.90;;;-0.60;97.30;;;;;;5053829;28;20561;-82
2021/11/28 06:30:21;;;;;;;11.67;4.80;;;-0.60;97.30;;;;;;5053356;28;20256;-82
2021/11/28 06:32:47;;;;;;;8.27;4.27;;;-0.50;97.30;;;;;;5036398;28;20474;-82
2021/11/28 06:35:13;;;;;;;9.97;4.43;;;-0.60;97.30;;;;;;5045136;28;20172;-82
2021/11/28 06:37:38;;;;;;;11.53;4.70;;;-0.50;97.30;;;;;;5056021;28;20233;-82
2021/11/28 06:40:05;;;;;;;7.33;4.20;;;-0.50;97.30;;;;;;5045198;28;20181;-81
2021/11/28 06:42:31;;;;;;;11.30;4.40;;;-0.40;97.30;;;;;;5037290;28;20222;-81
2021/11/28 06:44:57;;;;;;;8.40;4.60;;;-0.40;97.30;;;;;;5047289;28;20415;-81
2021/11/28 06:47:22;;;;;;;12.70;5.00;;;-0.40;97.30;;;;;;5036059;28;20459;-80
2021/11/28 06:49:48;;;;;;;7.70;4.47;;;-0.30;97.30;;;;;;5039863;28;20645;-81
2021/11/28 06:52:14;;;;;;;12.30;4.50;;;-0.30;97.30;;;;;;5041707;28;20184;-81
2021/11/28 06:54:39;;;;;;;12.10;5.03;;;-0.30;97.30;;;;;;5035609;28;20178;-81
2021/11/28 06:57:05;;;;;;;8.30;4.83;;;-0.20;97.30;;;;;;5035785;28;20667;-82
2021/11/28 06:59:31;;;;;;;8.73;4.87;;;-0.20;97.30;;;;;;5040644;28;20212;-81
2021/11/28 07:01:57;;;;;;;9.33;4.70;;;-0.20;97.30;;;;;;5041646;28;20422;-83
2021/11/28 07:04:23;;;;;;;11.53;5.13;;;-0.10;97.30;;;;;;5048009;28;20176;-82
2021/11/28 07:06:49;;;;;;;11.70;5.40;;;-0.10;97.30;;;;;;5035952;28;20494;-82
2021/11/28 07:09:14;;;;;;;14.60;6.23;;;-0.10;97.30;;;;;;5050755;28;20176;-81
2021/11/28 07:11:40;;;;;;;11.67;5.50;;;0.00;97.30;;;;;;5035973;28;20551;-81
2021/11/28 07:14:06;;;;;;;11.60;5.77;;;0.00;97.30;;;;;;5036367;28;20176;-82
2021/11/28 07:16:32;;;;;;;8.60;4.70;;;0.00;97.30;;;;;;5042931;28;20779;-82
2021/11/28 07:18:58;;;;;;;11.40;4.60;;;0.10;97.30;;;;;;5056391;28;20465;-83
2021/11/28 07:21:23;;;;;;;9.33;5.20;;;0.10;97.30;;;;;;5053092;28;20630;-82
2021/11/28 07:23:49;;;;;;;9.70;4.97;;;0.10;97.30;;;;;;5055910;28;20227;-82
2021/11/28 07:26:16;;;;;;;12.73;5.50;;;0.10;97.30;;;;;;5047464;28;20202;-81
2021/11/28 07:28:43;;;;;;;11.70;5.50;;;0.10;97.30;;;;;;5052973;28;20228;-80
2021/11/28 07:31:10;;;;;;;10.20;4.97;;;0.20;97.30;;;;;;5049595;28;20504;-81
2021/11/28 07:33:36;;;;;;;10.67;5.87;;;0.10;97.30;;;;;;5043778;28;20426;-82
2021/11/28 07:36:03;;;;;;;15.90;5.40;;;0.10;97.30;;;;;;5056140;28;20442;-80
2021/11/28 07:38:29;;;;;;;9.63;5.43;;;0.10;97.30;;;;;;5035939;28;20423;-82
2021/11/28 07:40:55;;;;;;;12.37;5.63;;;0.10;97.30;;;;;;5035820;28;21067;-81
2021/11/28 07:43:20;;;;;;;8.70;5.27;;;0.10;97.30;;;;;;5046516;28;20187;-82
2021/11/28 07:45:46;;;;;;;12.87;4.60;;;0.10;97.30;;;;;;5042254;28;20971;-82
2021/11/28 07:48:11;;;;;;;8.73;5.07;;;0.00;97.30;;;;;;5055257;28;20217;-82
2021/11/28 07:50:37;;;;;;;9.57;4.50;;;-0.10;97.30;;;;;;5047770;28;20701;-82
2021/11/28 07:53:03;;;;;;;12.47;5.83;;;-0.10;97.30;;;;;;5036266;28;20247;-82
2021/11/28 07:55:29;;;;;;;10.90;5.63;;;0.00;97.30;;;;;;5037745;28;20202;-82
2021/11/28 07:57:54;;;;;;;15.70;6.20;;;0.10;97.30;;;;;;5050446;28;20414;-82
2021/11/28 08:00:20;;;;;;;12.77;6.20;;;0.20;97.30;;;;;;5047180;28;20184;-81
2021/11/28 08:02:46;;;;;;;13.93;6.10;;;0.30;97.30;;;;;;5041069;28;20239;-82
2021/11/28 08:05:11;;;;;;;11.90;5.90;;;0.30;97.30;;;;;;5039001;28;20966;-82
2021/11/28 08:07:37;;;;;;;17.60;6.03;;;0.40;97.30;;;;;;5042882;28;20206;-82
2021/11/28 08:10:03;;;;;;;11.77;6.23;;;0.50;97.30;;;;;;5039200;28;20184;-83
2021/11/28 08:12:29;;;;;;;11.97;5.97;;;0.50;97.30;;;;;;5036432;28;20187;-83
2021/11/28 08:14:55;;;;;;;17.60;6.73;;;0.60;97.30;;;;;;5055481;28;20414;-83
2021/11/28 08:17:20;;;;;;;11.17;5.77;;;0.60;97.30;;;;;;5050889;28;20207;-83
2021/11/28 08:19:46;;;;;;;14.40;7.43;;;0.60;97.30;;;;;;5054547;28;20270;-82
2021/11/28 08:22:12;;;;;;;14.10;6.27;;;0.60;97.30;;;;;;5053858;28;20234;-83
2021/11/28 08:24:38;;;;;;;12.03;6.03;;;0.60;97.30;;;;;;5054100;28;20184;-82
2021/11/28 08:27:04;;;;;;;13.10;5.83;;;0.60;97.30;;;;;;5053328;28;20269;-82
2021/11/28 08:29:29;;;;;;;14.60;6.20;;;0.60;97.30;;;;;;5053282;28;20468;-82
2021/11/28 08:31:55;;;;;;;13.17;6.03;;;0.60;97.30;;;;;;5053462;28;20415;-82
2021/11/28 08:34:21;;;;;;;11.33;5.77;;;0.60;97.30;;;;;;5054205;28;20247;-82
2021/11/28 08:36:47;;;;;;;17.87;6.77;;;0.70;97.30;;;;;;5053392;28;20321;-82
2021/11/28 08:39:13;;;;;;;20.70;7.17;;;0.70;97.30;;;;;;5053266;28;20427;-82
2021/11/28 08:41:40;;;;;;;16.53;6.30;;;0.70;97.30;;;;;;5052830;28;20188;-83
2021/11/28 08:44:06;;;;;;;15.63;6.70;;;0.70;97.30;;;;;;5053065;28;20426;-82
2021/11/28 08:46:33;;;;;;;13.73;6.90;;;0.70;97.30;;;;;;5053197;28;20479;-82
2021/11/28 08:48:59;;;;;;;16.13;5.70;;;0.80;97.30;;;;;;5050989;28;20428;-82
2021/11/28 08:51:26;;;;;;;14.07;6.40;;;0.70;97.30;;;;;;5034685;28;20415;-82
2021/11/28 08:53:54;;;;;;;13.07;5.50;;;0.70;97.30;;;;;;5049718;28;20835;-82
2021/11/28 08:56:20;;;;;;;15.57;7.30;;;0.70;97.30;;;;;;5050155;28;20943;-82
2021/11/28 08:58:45;;;;;;;11.37;6.50;;;0.70;97.30;;;;;;5052858;28;20418;-83
2021/11/28 09:01:11;;;;;;;14.57;6.50;;;0.70;97.30;;;;;;5054975;28;20585;-83
2021/11/28 09:03:37;;;;;;;15.90;7.73;;;0.70;97.30;;;;;;5053155;28;20211;-82
2021/11/28 09:06:03;;;;;;;18.07;7.00;;;0.70;97.30;;;;;;5053114;28;20503;-82
2021/11/28 09:08:28;;;;;;;15.73;7.40;;;0.70;97.30;;;;;;5053697;28;20185;-83
2021/11/28 09:10:54;;;;;;;11.67;5.70;;;0.80;97.30;;;;;;5053292;28;20795;-83
2021/11/28 09:13:20;;;;;;;13.60;6.87;;;0.80;97.30;;;;;;5033622;28;20190;-83
2021/11/28 09:15:46;;;;;;;10.33;5.57;;;0.80;97.30;;;;;;5033552;28;20193;-83
2021/11/28 09:18:16;;;;;;;12.83;6.30;;;0.80;97.30;;;;;;5033336;28;20927;-83
2021/11/28 09:20:49;;;;;;;15.70;6.60;;;0.90;97.30;;;;;;5033377;28;20180;-83
2021/11/28 09:25:40;;;;;;;18.63;6.93;;;0.90;97.30;;;;;;5055733;28;20503;-80
2021/11/28 09:28:06;;;;;;;17.70;6.03;;;0.90;97.30;;;;;;5054233;28;20215;-83
2021/11/28 09:30:34;;;;;;;10.73;5.87;;;1.00;97.30;;;;;;5052987;28;20549;-82
2021/11/28 09:33:01;;;;;;;10.97;5.90;;;1.00;97.30;;;;;;5051275;28;20817;-82
2021/11/28 09:35:28;;;;;;;13.90;6.47;;;1.00;97.30;;;;;;5052837;28;20445;-83
2021/11/28 09:37:54;;;;;;;12.03;6.40;;;1.10;97.30;;;;;;5052743;28;20413;-83
2021/11/28 09:40:21;;;;;;;13.17;5.50;;;1.10;97.30;;;;;;5044446;28;20488;-82
2021/11/28 09:42:58;;;;;;;11.80;6.00;;;1.20;97.30;;;;;;5046528;28;20830;-83
2021/11/28 09:45:26;;;;;;;15.37;6.80;;;1.30;97.30;;;;;;5033954;28;20435;-83
2021/11/28 09:47:54;;;;;;;16.40;7.50;;;1.30;97.30;;;;;;5034176;28;20465;-83
2021/11/28 09:50:20;;;;;;;11.20;6.50;;;1.30;97.30;;;;;;5033336;28;20411;-83
2021/11/28 09:52:49;;;;;;;14.57;7.67;;;1.30;97.30;;;;;;5033311;28;20422;-83
2021/11/28 09:55:16;;;;;;;19.63;8.00;;;1.30;97.30;;;;;;5051359;28;20815;-83
2021/11/28 09:57:42;;;;;;;17.00;8.60;;;1.40;97.30;;;;;;5053349;28;20476;-83
2021/11/28 10:00:10;;;;;;;19.63;9.73;;;1.50;97.30;;;;;;5065754;28;20512;-83
2021/11/28 10:02:36;;;;;;;20.40;8.20;;;1.50;97.30;;;;;;5044460;28;20427;-83
2021/11/28 10:05:05;;;;;;;19.07;8.40;;;1.60;97.30;;;;;;5042505;28;20426;-83
2021/11/28 10:07:31;;;;;;;14.53;7.10;;;1.70;97.30;;;;;;5053593;28;20819;-83
2021/11/28 10:09:58;;;;;;;12.57;6.50;;;1.90;97.30;;;;;;5058552;28;20406;-83
2021/11/28 10:12:29;;;;;;;18.30;7.33;;;2.00;97.30;;;;;;5056855;28;20183;-83
2021/11/28 10:14:57;;;;;;;17.97;8.80;;;2.10;97.30;;;;;;5057112;28;20486;-83
2021/11/28 10:17:28;;;;;;;14.80;6.90;;;2.20;97.30;;;;;;5049058;28;20451;-83
2021/11/28 10:19:58;;;;;;;15.17;6.80;;;2.30;97.30;;;;;;5037465;28;20994;-83
2021/11/28 10:22:24;;;;;;;18.50;7.20;;;2.40;97.30;;;;;;5047663;28;20553;-83
2021/11/28 10:25:16;;;;;;;20.00;7.73;;;2.40;97.30;;;;;;5058446;28;20438;-83
2021/11/28 10:27:43;;;;;;;14.87;6.90;;;2.60;97.30;;;;;;5056810;28;20462;-83
2021/11/28 10:30:30;;;;;;;15.50;7.10;;;2.70;97.30;;;;;;5049268;28;20442;-83
2021/11/28 10:33:09;;;;;;;14.87;7.17;;;2.80;97.30;;;;;;5047006;28;20943;-83
2021/11/28 10:35:35;;;;;;;16.00;7.20;;;2.90;97.30;;;;;;5036485;28;20435;-83
2021/11/28 10:38:10;;;;;;;11.63;6.10;;;3.00;97.30;;;;;;5039901;28;20415;-83
2021/11/28 10:40:35;;;;;;;12.97;6.93;;;3.10;97.30;;;;;;5053925;28;20405;-83
2021/11/28 10:43:15;;;;;;;15.47;6.70;;;3.20;97.30;;;;;;5040814;28;20437;-83
2021/11/28 10:45:47;;;;;;;10.70;6.30;;;3.40;97.30;;;;;;5045725;28;20620;-82
2021/11/28 10:48:14;;;;;;;15.67;7.20;;;3.50;97.30;;;;;;5067167;28;20475;-83
2021/11/28 10:50:41;;;;;;;13.93;6.77;;;3.50;97.30;;;;;;5056750;28;20411;-83
2021/11/28 10:53:15;;;;;;;12.87;6.60;;;3.60;97.30;;;;;;5056293;28;20462;-83
2021/11/28 10:55:45;;;;;;;12.00;6.10;;;3.80;97.30;;;;;;5054958;28;20456;-83
2021/11/28 10:58:30;;;;;;;18.03;6.00;;;4.00;97.30;;;;;;5058543;28;20912;-84
2021/11/28 11:01:10;;;;;;;14.00;5.83;;;4.10;97.30;;;;;;5058938;28;20438;-83
2021/11/28 11:03:38;;;;;;;13.27;5.80;;;4.20;97.30;;;;;;5056253;28;20426;-83
2021/11/28 11:06:20;;;;;;;11.87;5.80;;;4.30;97.30;;;;;;5055739;28;20517;-83
2021/11/28 11:08:48;;;;;;;11.97;5.97;;;4.40;97.30;;;;;;5056004;28;20495;-82
2021/11/28 11:11:16;;;;;;;11.57;6.10;;;4.50;97.30;;;;;;5055533;28;20422;-82
2021/11/28 11:14:12;;;;;;;12.57;5.90;;;4.70;97.30;;;;;;5056157;28;20422;-83
2021/11/28 11:16:43;;;;;;;9.10;5.70;;;4.80;97.30;;;;;;5048137;28;20527;-82
2021/11/28 11:19:35;;;;;;;17.90;7.13;;;4.90;97.30;;;;;;5056200;28;20426;-82
2021/11/28 11:22:11;;;;;;;11.80;5.80;;;5.00;97.30;;;;;;5056942;28;20418;-81
2021/11/28 11:24:40;;;;;;;12.43;6.00;;;5.20;97.30;;;;;;5056425;28;20429;-82
2021/11/28 11:27:11;;;;;;;15.57;5.50;;;5.50;97.30;;;;;;5056370;28;20474;-82
2021/11/28 11:29:39;;;;;;;11.40;6.20;;;5.50;97.30;;;;;;5057961;28;20445;-82
2021/11/28 11:32:12;;;;;;;9.00;5.93;;;5.70;97.30;;;;;;5056507;28;20426;-81
2021/11/28 11:34:38;;;;;;;11.20;6.23;;;5.80;97.30;;;;;;5056774;28;20454;-82
2021/11/28 11:37:11;;;;;;;10.93;5.30;;;6.00;97.30;;;;;;5056555;28;20478;-82
2021/11/28 11:39:37;;;;;;;15.53;5.30;;;5.80;97.30;;;;;;5057218;28;20817;-82
2021/11/28 11:42:03;;;;;;;7.97;5.53;;;5.90;97.30;;;;;;5057763;28;20424;-82
2021/11/28 11:44:29;;;;;;;15.27;5.37;;;6.00;97.30;;;;;;5055996;28;20220;-82
2021/11/28 11:46:57;;;;;;;7.20;4.87;;;6.00;97.30;;;;;;5059134;28;20269;-82
2021/11/28 11:49:24;;;;;;;11.67;5.80;;;6.10;97.30;;;;;;5056540;28;20414;-82
2021/11/28 11:51:50;;;;;;;10.93;5.30;;;6.40;97.30;;;;;;5057421;28;20450;-82
2021/11/28 11:54:19;;;;;;;10.77;5.50;;;6.40;97.30;;;;;;5057225;28;20452;-82
2021/11/28 11:56:48;;;;;;;7.70;4.97;;;6.40;97.30;;;;;;5056238;28;20230;-82
2021/11/28 11:59:31;;;;;;;15.03;5.40;;;6.50;97.30;;;;;;5056106;28;20414;-81
2021/11/28 12:02:05;;;;;;;11.20;5.57;;;6.60;97.30;;;;;;5056709;28;20418;-82
2021/11/28 12:04:40;;;;;;;10.93;5.10;;;6.80;97.30;;;;;;5056457;28;20468;-80
2021/11/28 12:07:07;;;;;;;12.27;4.80;;;6.80;97.30;;;;;;5056014;28;21014;-82
2021/11/28 12:09:34;;;;;;;8.37;5.50;;;6.80;97.10;;;;;;5055521;28;20461;-82
2021/11/28 12:12:02;;;;;;;9.97;5.00;;;6.90;97.30;;;;;;5054051;28;20514;-81
2021/11/28 12:14:28;;;;;;;6.23;4.50;;;6.80;96.50;;;;;;5056523;28;20418;-82
2021/11/28 12:16:54;;;;;;;7.97;4.77;;;6.80;96.60;;;;;;5052851;28;20866;-82
2021/11/28 12:19:41;;;;;;;9.00;4.60;;;6.90;96.30;;;;;;5057308;28;20513;-82
2021/11/28 12:22:26;;;;;;;9.00;4.37;;;7.00;96.20;;;;;;5043522;28;20455;-82
2021/11/28 12:24:54;;;;;;;8.60;4.60;;;7.00;96.10;;;;;;5035274;28;20522;-82
2021/11/28 12:27:38;;;;;;;9.83;5.00;;;7.10;96.30;;;;;;5035895;28;21025;-81
2021/11/28 12:30:33;;;;;;;13.77;6.40;;;7.10;96.10;;;;;;5047074;28;20422;-82
2021/11/28 12:32:58;;;;;;;9.23;4.97;;;7.30;95.30;;;;;;5055864;28;20557;-82
2021/11/28 12:35:38;;;;;;;14.43;5.80;;;7.60;95.40;;;;;;5043391;28;20467;-81
2021/11/28 12:38:04;;;;;;;8.97;5.20;;;7.80;94.90;;;;;;5034488;28;20180;-81
2021/11/28 12:40:33;;;;;;;6.97;3.87;;;7.90;94.00;;;;;;5039360;28;20956;-82
2021/11/28 12:43:13;;;;;;;9.33;4.30;;;7.80;93.00;;;;;;5055271;28;20851;-82
2021/11/28 12:45:40;;;;;;;10.33;4.40;;;7.70;93.40;;;;;;5055721;28;20452;-82
2021/11/28 12:48:25;;;;;;;10.80;4.03;;;7.70;93.30;;;;;;5055741;28;20967;-82
2021/11/28 12:50:59;;;;;;;10.00;5.10;;;7.70;93.60;;;;;;5035722;28;20422;-81
2021/11/28 12:53:26;;;;;;;7.87;3.93;;;7.60;93.50;;;;;;5036823;28;20461;-82
2021/11/28 12:56:10;;;;;;;7.07;4.40;;;7.70;93.40;;;;;;5036060;28;20449;-82